Time;durP1;ratioP1;P1;durP2;ratioP2;P2;SDS_P1;SDS_P2;PMS_P1;PMS_P2;Temp;Humidity;BMP_temperature;BMP_pressure;BME280_temperature;BME280_humidity;BME280_pressure;Samples;Min_cycle;Max_cycle;Signal;HPM_P1;HPM_P2
2021/01/05 00:01:43;;;;;;;60.53;31.42;;;;;;;;;;5039955;28;20776;-76
2021/01/05 00:04:11;;;;;;;58.85;31.17;;;;;;;;;;5080525;28;20040;-76
2021/01/05 00:06:39;;;;;;;61.35;31.20;;;;;;;;;;5054790;28;20091;-77
2021/01/05 00:09:07;;;;;;;62.80;34.63;;;;;;;;;;5073360;28;20736;-76
2021/01/05 00:11:35;;;;;;;63.95;33.08;;;;;;;;;;5061613;28;20044;-76
2021/01/05 00:14:02;;;;;;;66.90;31.50;;;;;;;;;;5073714;28;20487;-76
2021/01/05 00:16:30;;;;;;;61.45;33.88;;;;;;;;;;5055337;28;20143;-77
2021/01/05 00:18:58;;;;;;;63.35;33.47;;;;;;;;;;5039289;28;20060;-77
2021/01/05 00:21:26;;;;;;;58.17;32.03;;;;;;;;;;5056380;28;20068;-76
2021/01/05 00:23:54;;;;;;;60.72;32.65;;;;;;;;;;5073298;28;20041;-76
2021/01/05 00:26:22;;;;;;;62.42;32.83;;;;;;;;;;5055411;28;20130;-76
2021/01/05 00:28:50;;;;;;;68.10;34.63;;;;;;;;;;5059720;28;20075;-77
2021/01/05 00:31:17;;;;;;;64.75;34.53;;;;;;;;;;5038736;28;20852;-76
2021/01/05 00:33:45;;;;;;;72.45;34.97;;;;;;;;;;5055227;28;20060;-77
2021/01/05 00:36:13;;;;;;;71.43;36.97;;;;;;;;;;5055893;28;20064;-77
2021/01/05 00:38:40;;;;;;;73.20;36.08;;;;;;;;;;5044760;28;20063;-76
2021/01/05 00:41:08;;;;;;;70.25;35.55;;;;;;;;;;5055678;28;20066;-76
2021/01/05 00:43:36;;;;;;;71.63;35.45;;;;;;;;;;5023027;28;20114;-76
2021/01/05 00:46:06;;;;;;;66.43;33.40;;;;;;;;;;5062763;28;20982;-76
2021/01/05 00:48:33;;;;;;;65.20;32.03;;;;;;;;;;5046127;28;20111;-76
2021/01/05 00:51:01;;;;;;;63.97;33.63;;;;;;;;;;5073216;28;20056;-77
2021/01/05 00:53:29;;;;;;;63.97;32.13;;;;;;;;;;5041307;28;20052;-76
2021/01/05 00:55:57;;;;;;;59.08;28.38;;;;;;;;;;5073184;28;20041;-77
2021/01/05 00:58:25;;;;;;;54.67;28.42;;;;;;;;;;5055148;28;20064;-77
2021/01/05 01:00:54;;;;;;;58.08;29.45;;;;;;;;;;5062127;28;20820;-77
2021/01/05 01:03:23;;;;;;;47.92;27.15;;;;;;;;;;5038679;28;20064;-76
2021/01/05 01:05:54;;;;;;;51.05;27.08;;;;;;;;;;5046819;28;20127;-77
2021/01/05 01:08:26;;;;;;;48.00;26.70;;;;;;;;;;5045956;28;20068;-76
2021/01/05 01:10:56;;;;;;;49.25;27.63;;;;;;;;;;5055873;28;20340;-76
2021/01/05 01:13:27;;;;;;;48.28;27.10;;;;;;;;;;5022628;28;20056;-76
2021/01/05 01:15:56;;;;;;;53.60;29.02;;;;;;;;;;5023075;28;20045;-76
2021/01/05 01:18:24;;;;;;;54.45;29.05;;;;;;;;;;5038292;28;20392;-76
2021/01/05 01:20:52;;;;;;;50.17;29.48;;;;;;;;;;5058905;28;20040;-76
2021/01/05 01:23:25;;;;;;;50.15;26.52;;;;;;;;;;5062114;28;20051;-77
2021/01/05 01:25:57;;;;;;;55.00;30.88;;;;;;;;;;5040151;28;20044;-76
2021/01/05 01:28:27;;;;;;;56.10;29.60;;;;;;;;;;5038324;28;20153;-76
2021/01/05 01:30:55;;;;;;;56.63;28.10;;;;;;;;;;5054419;28;20399;-76
2021/01/05 01:33:29;;;;;;;54.25;28.15;;;;;;;;;;5026754;28;20051;-77
2021/01/05 01:36:02;;;;;;;50.72;25.33;;;;;;;;;;5040940;28;20040;-77
2021/01/05 01:38:30;;;;;;;52.25;30.00;;;;;;;;;;5054014;28;20068;-76
2021/01/05 01:41:00;;;;;;;51.00;29.38;;;;;;;;;;5055087;28;20139;-77
2021/01/05 01:43:39;;;;;;;50.97;30.30;;;;;;;;;;5032194;28;20380;-78
2021/01/05 01:46:16;;;;;;;49.80;27.60;;;;;;;;;;5042188;28;20036;-77
2021/01/05 01:48:45;;;;;;;56.22;29.98;;;;;;;;;;5055943;28;20045;-76
2021/01/05 01:51:14;;;;;;;49.13;29.98;;;;;;;;;;5037928;28;20088;-77
2021/01/05 01:54:16;;;;;;;60.63;31.90;;;;;;;;;;5024252;28;20403;-77
2021/01/05 01:57:06;;;;;;;55.30;29.02;;;;;;;;;;5038271;28;20096;-77
2021/01/05 01:59:56;;;;;;;54.75;30.27;;;;;;;;;;5054864;28;20048;-77
2021/01/05 02:03:19;;;;;;;47.40;26.00;;;;;;;;;;5043711;28;20049;-76
2021/01/05 02:06:23;;;;;;;48.47;25.83;;;;;;;;;;5053597;28;20724;-76
2021/01/05 02:09:14;;;;;;;48.33;26.83;;;;;;;;;;5029319;28;20051;-76
2021/01/05 02:12:01;;;;;;;51.80;27.88;;;;;;;;;;5054869;28;20049;-76
2021/01/05 02:14:56;;;;;;;57.38;31.73;;;;;;;;;;5059792;28;20128;-76
2021/01/05 02:18:23;;;;;;;46.97;26.73;;;;;;;;;;5039795;28;20054;-76
2021/01/05 02:21:04;;;;;;;48.28;28.23;;;;;;;;;;5058100;28;20048;-76
2021/01/05 02:23:51;;;;;;;52.38;28.20;;;;;;;;;;5029138;28;20036;-76
2021/01/05 02:26:50;;;;;;;49.60;26.40;;;;;;;;;;5060620;28;20434;-77
2021/01/05 02:29:26;;;;;;;53.70;28.45;;;;;;;;;;5043957;28;20075;-76
2021/01/05 02:32:45;;;;;;;49.78;26.77;;;;;;;;;;5042128;28;20063;-76
2021/01/05 02:36:00;;;;;;;42.72;25.40;;;;;;;;;;4977340;28;20062;-76
2021/01/05 02:40:02;;;;;;;46.95;25.75;;;;;;;;;;4994939;28;20196;-76
2021/01/05 02:43:35;;;;;;;44.83;24.57;;;;;;;;;;4988367;28;20141;-76
2021/01/05 02:46:44;;;;;;;44.78;26.08;;;;;;;;;;4973724;28;20067;-76
2021/01/05 02:50:00;;;;;;;44.05;27.00;;;;;;;;;;4962115;28;20059;-76
2021/01/05 02:53:24;;;;;;;49.83;27.05;;;;;;;;;;4935724;29;20056;-76
2021/01/05 02:56:49;;;;;;;48.30;27.95;;;;;;;;;;4938282;28;20868;-76
2021/01/05 02:59:53;;;;;;;50.97;28.30;;;;;;;;;;4948899;28;20064;-77
2021/01/05 03:02:58;;;;;;;46.35;28.40;;;;;;;;;;4956371;28;20063;-76
2021/01/05 03:05:47;;;;;;;42.65;25.42;;;;;;;;;;4953831;28;20130;-76
2021/01/05 03:08:33;;;;;;;44.85;27.00;;;;;;;;;;4965674;28;20047;-76
2021/01/05 03:11:28;;;;;;;42.15;26.35;;;;;;;;;;4980035;28;20111;-76
2021/01/05 03:14:38;;;;;;;48.25;28.63;;;;;;;;;;5030538;28;20049;-76
2021/01/05 03:17:44;;;;;;;45.00;26.52;;;;;;;;;;5008864;28;20064;-76
2021/01/05 03:20:50;;;;;;;44.33;26.38;;;;;;;;;;5005904;28;20459;-76
2021/01/05 03:23:36;;;;;;;49.15;29.13;;;;;;;;;;5009912;28;20037;-76
2021/01/05 03:26:41;;;;;;;47.13;28.40;;;;;;;;;;5018251;28;20045;-75
2021/01/05 03:29:27;;;;;;;45.90;28.60;;;;;;;;;;5016849;28;20786;-76
2021/01/05 03:32:14;;;;;;;42.78;26.75;;;;;;;;;;5023217;28;20127;-75
2021/01/05 03:35:04;;;;;;;43.13;25.08;;;;;;;;;;5059092;28;20051;-76
2021/01/05 03:37:50;;;;;;;41.67;25.83;;;;;;;;;;5043304;28;20048;-76
2021/01/05 03:40:40;;;;;;;44.60;26.40;;;;;;;;;;5011335;28;20117;-76
2021/01/05 03:43:27;;;;;;;41.85;26.35;;;;;;;;;;5027445;28;20468;-76
2021/01/05 03:46:13;;;;;;;48.17;26.88;;;;;;;;;;5013285;28;20058;-77
2021/01/05 03:48:59;;;;;;;42.90;27.13;;;;;;;;;;5032454;28;20053;-77
2021/01/05 03:51:46;;;;;;;49.10;27.10;;;;;;;;;;4988923;28;20354;-78
2021/01/05 03:54:32;;;;;;;45.33;26.73;;;;;;;;;;4998251;28;20053;-77
2021/01/05 03:57:19;;;;;;;41.50;25.65;;;;;;;;;;4998548;28;20046;-77
2021/01/05 04:00:13;;;;;;;40.85;24.00;;;;;;;;;;4990975;28;20046;-77
2021/01/05 04:02:41;;;;;;;42.53;24.20;;;;;;;;;;5000996;28;20050;-77
2021/01/05 04:05:11;;;;;;;43.38;25.70;;;;;;;;;;4995307;28;20117;-77
2021/01/05 04:07:38;;;;;;;40.92;26.38;;;;;;;;;;4979315;28;20166;-77
2021/01/05 04:10:07;;;;;;;40.10;25.17;;;;;;;;;;5028146;28;20507;-76
2021/01/05 04:12:36;;;;;;;42.97;25.30;;;;;;;;;;5027486;28;20062;-77
2021/01/05 04:15:11;;;;;;;45.95;26.45;;;;;;;;;;5011834;28;20134;-77
2021/01/05 04:17:39;;;;;;;44.97;25.92;;;;;;;;;;5008005;28;20057;-77
2021/01/05 04:20:07;;;;;;;43.13;23.80;;;;;;;;;;5015885;28;20053;-78
2021/01/05 04:22:34;;;;;;;40.63;25.65;;;;;;;;;;5033493;28;20068;-78
2021/01/05 04:25:05;;;;;;;42.85;26.73;;;;;;;;;;5016638;28;20068;-76
2021/01/05 04:27:33;;;;;;;47.05;26.58;;;;;;;;;;5033321;28;20069;-76
2021/01/05 04:30:00;;;;;;;41.20;25.58;;;;;;;;;;4999577;28;20080;-76
2021/01/05 04:32:28;;;;;;;42.30;25.75;;;;;;;;;;5015475;28;20053;-77
2021/01/05 04:34:56;;;;;;;36.38;23.85;;;;;;;;;;5015934;28;20041;-76
2021/01/05 04:37:23;;;;;;;40.53;24.73;;;;;;;;;;5033443;28;20065;-77
2021/01/05 04:39:51;;;;;;;42.55;27.02;;;;;;;;;;5000264;28;20045;-77
2021/01/05 04:42:31;;;;;;;45.92;26.73;;;;;;;;;;4999471;28;20077;-77
2021/01/05 04:45:11;;;;;;;49.63;28.95;;;;;;;;;;4990885;28;20472;-77
2021/01/05 04:48:24;;;;;;;42.63;24.88;;;;;;;;;;4990704;28;20536;-78
2021/01/05 04:50:57;;;;;;;43.95;27.13;;;;;;;;;;5007744;28;20060;-77
2021/01/05 04:53:34;;;;;;;44.42;26.35;;;;;;;;;;5034170;28;20391;-78
2021/01/05 04:56:09;;;;;;;44.00;24.73;;;;;;;;;;5006865;28;20469;-78
2021/01/05 04:58:46;;;;;;;43.42;27.95;;;;;;;;;;5000640;28;20068;-77
2021/01/05 05:01:37;;;;;;;37.35;23.52;;;;;;;;;;5040101;28;20392;-77
2021/01/05 05:04:34;;;;;;;42.15;26.55;;;;;;;;;;4940142;28;20059;-78
2021/01/05 05:07:28;;;;;;;44.40;24.45;;;;;;;;;;4940936;28;20047;-75
2021/01/05 05:10:22;;;;;;;36.80;22.38;;;;;;;;;;4922505;28;20086;-75
2021/01/05 05:13:21;;;;;;;45.00;24.48;;;;;;;;;;4970518;28;20090;-75
2021/01/05 05:16:26;;;;;;;40.78;24.27;;;;;;;;;;4970790;28;20860;-75
2021/01/05 05:19:21;;;;;;;45.63;25.02;;;;;;;;;;4970348;28;20656;-75
2021/01/05 05:22:23;;;;;;;41.17;23.30;;;;;;;;;;4973236;28;20146;-75
2021/01/05 05:24:55;;;;;;;40.85;22.55;;;;;;;;;;4970115;28;20516;-74
2021/01/05 05:27:44;;;;;;;;;;;;;;;;;;4975943;28;20796;-74
2021/01/05 05:30:35;;;;;;;37.10;22.55;;;;;;;;;;5012422;28;19926;-74
2021/01/05 05:33:25;;;;;;;42.60;23.77;;;;;;;;;;4977161;28;20050;-75
2021/01/05 05:36:39;;;;;;;38.28;22.73;;;;;;;;;;4973579;28;20465;-74
2021/01/05 05:39:24;;;;;;;;;;;;;;;;;;4970459;28;20126;-75
2021/01/05 05:42:16;;;;;;;39.15;21.65;;;;;;;;;;5017284;28;20403;-75
2021/01/05 05:45:20;;;;;;;43.58;24.30;;;;;;;;;;5012772;28;20444;-74
2021/01/05 05:48:02;;;;;;;40.30;23.95;;;;;;;;;;4937864;29;20063;-75
2021/01/05 05:50:53;;;;;;;39.25;25.17;;;;;;;;;;4956182;28;20083;-75
2021/01/05 05:53:27;;;;;;;41.88;24.92;;;;;;;;;;4950811;28;20058;-75
2021/01/05 05:56:15;;;;;;;48.00;27.48;;;;;;;;;;4937481;29;20077;-75
2021/01/05 05:58:54;;;;;;;38.10;23.15;;;;;;;;;;4919654;29;20518;-77
2021/01/05 06:01:39;;;;;;;41.70;26.83;;;;;;;;;;4933827;29;20055;-75
2021/01/05 06:04:07;;;;;;;43.33;25.60;;;;;;;;;;4948197;28;20162;-74
2021/01/05 06:06:37;;;;;;;43.30;27.48;;;;;;;;;;4932534;29;20437;-74
2021/01/05 06:09:05;;;;;;;42.50;24.85;;;;;;;;;;4948944;28;20618;-74
2021/01/05 06:11:33;;;;;;;42.55;26.05;;;;;;;;;;4968305;28;20063;-73
2021/01/05 06:14:05;;;;;;;50.70;32.97;;;;;;;;;;4952229;28;20831;-73
2021/01/05 06:16:34;;;;;;;45.85;29.33;;;;;;;;;;4974746;28;20063;-74
2021/01/05 06:19:02;;;;;;;46.65;28.20;;;;;;;;;;4984289;28;20069;-74
2021/01/05 06:21:31;;;;;;;46.35;27.05;;;;;;;;;;4990970;28;20050;-74
2021/01/05 06:23:58;;;;;;;43.55;28.40;;;;;;;;;;4994084;28;20068;-74
2021/01/05 06:26:26;;;;;;;42.03;26.67;;;;;;;;;;5011700;28;20049;-74
2021/01/05 06:28:54;;;;;;;44.88;23.80;;;;;;;;;;4979550;28;20453;-74
2021/01/05 06:31:22;;;;;;;39.42;24.27;;;;;;;;;;4995498;28;20464;-74
2021/01/05 06:33:50;;;;;;;37.65;24.02;;;;;;;;;;5012007;28;20147;-73
2021/01/05 06:36:22;;;;;;;38.08;23.20;;;;;;;;;;4989295;28;20411;-76
2021/01/05 06:38:49;;;;;;;42.17;25.13;;;;;;;;;;4998641;28;20157;-78
2021/01/05 06:41:17;;;;;;;48.75;30.08;;;;;;;;;;4998468;28;20456;-79
2021/01/05 06:43:45;;;;;;;54.45;32.55;;;;;;;;;;5014476;28;20058;-77
2021/01/05 06:46:12;;;;;;;59.90;33.50;;;;;;;;;;4996002;28;20147;-73
2021/01/05 06:48:40;;;;;;;57.45;34.45;;;;;;;;;;4994895;28;20676;-73
2021/01/05 06:51:08;;;;;;;58.88;34.08;;;;;;;;;;5010531;28;20161;-72
2021/01/05 06:53:35;;;;;;;50.15;31.00;;;;;;;;;;5012324;28;20045;-72
2021/01/05 06:56:04;;;;;;;45.22;29.63;;;;;;;;;;5028460;28;20049;-73
2021/01/05 06:58:32;;;;;;;42.20;27.20;;;;;;;;;;5015462;28;20732;-72
2021/01/05 07:00:59;;;;;;;37.88;25.52;;;;;;;;;;5012147;28;20751;-72
2021/01/05 07:03:27;;;;;;;51.30;32.30;;;;;;;;;;5012259;28;20607;-72
2021/01/05 07:05:54;;;;;;;49.50;33.10;;;;;;;;;;5036474;28;20049;-72
2021/01/05 07:08:22;;;;;;;44.75;27.48;;;;;;;;;;5029146;28;20131;-72
2021/01/05 07:10:50;;;;;;;39.10;24.13;;;;;;;;;;4979558;28;20049;-72
2021/01/05 07:13:17;;;;;;;39.72;26.00;;;;;;;;;;5034637;28;20043;-73
2021/01/05 07:15:46;;;;;;;42.42;25.85;;;;;;;;;;5031574;28;20041;-72
2021/01/05 07:18:13;;;;;;;36.20;24.13;;;;;;;;;;4999996;28;20488;-72
2021/01/05 07:20:50;;;;;;;34.33;22.15;;;;;;;;;;5024275;28;20045;-72
2021/01/05 07:23:18;;;;;;;40.28;24.63;;;;;;;;;;5016126;28;20061;-73
2021/01/05 07:25:46;;;;;;;37.83;24.55;;;;;;;;;;4997999;28;20148;-72
2021/01/05 07:28:14;;;;;;;45.30;27.95;;;;;;;;;;5032558;28;20092;-73
2021/01/05 07:30:42;;;;;;;44.25;29.25;;;;;;;;;;4998624;28;20519;-73
2021/01/05 07:33:09;;;;;;;47.42;28.25;;;;;;;;;;4998699;28;20072;-75
2021/01/05 07:35:37;;;;;;;46.55;27.38;;;;;;;;;;5014453;28;20061;-73
2021/01/05 07:38:05;;;;;;;46.83;30.75;;;;;;;;;;4998274;28;20069;-73
2021/01/05 07:40:33;;;;;;;43.85;25.40;;;;;;;;;;5017671;28;20046;-73
2021/01/05 07:43:00;;;;;;;46.45;27.65;;;;;;;;;;5013789;28;20065;-72
2021/01/05 07:45:29;;;;;;;36.25;23.98;;;;;;;;;;5031559;28;20148;-72
2021/01/05 07:47:57;;;;;;;40.00;23.83;;;;;;;;;;5029956;28;20061;-72
2021/01/05 07:50:29;;;;;;;39.20;25.27;;;;;;;;;;5018252;28;20041;-73
2021/01/05 07:52:58;;;;;;;40.27;25.03;;;;;;;;;;5017359;28;20052;-73
2021/01/05 07:55:28;;;;;;;38.15;24.70;;;;;;;;;;5020913;28;20143;-74
2021/01/05 07:57:56;;;;;;;40.63;26.90;;;;;;;;;;5031953;28;20096;-73
2021/01/05 08:00:27;;;;;;;40.95;24.15;;;;;;;;;;4997968;28;20049;-73
2021/01/05 08:02:57;;;;;;;45.22;24.55;;;;;;;;;;5034098;28;20500;-73
2021/01/05 08:05:29;;;;;;;39.33;22.63;;;;;;;;;;5016393;28;20416;-74
2021/01/05 08:07:57;;;;;;;36.83;22.90;;;;;;;;;;5048460;28;20049;-72
2021/01/05 08:10:31;;;;;;;35.20;22.20;;;;;;;;;;5030818;28;20069;-72
2021/01/05 08:13:02;;;;;;;36.95;21.67;;;;;;;;;;5018649;28;20064;-73
2021/01/05 08:15:30;;;;;;;36.80;22.17;;;;;;;;;;5013812;28;20404;-73
2021/01/05 08:17:59;;;;;;;32.15;20.92;;;;;;;;;;5016968;28;20091;-72
2021/01/05 08:20:30;;;;;;;39.55;23.77;;;;;;;;;;5013501;28;20053;-74
2021/01/05 08:22:58;;;;;;;31.58;20.17;;;;;;;;;;5013704;28;20049;-72
2021/01/05 08:25:26;;;;;;;31.20;20.58;;;;;;;;;;4998977;28;20057;-72
2021/01/05 08:27:54;;;;;;;29.38;22.25;;;;;;;;;;5013281;28;20574;-72
2021/01/05 08:30:28;;;;;;;36.17;22.42;;;;;;;;;;5013508;28;20053;-73
2021/01/05 08:33:02;;;;;;;33.15;22.75;;;;;;;;;;5012975;28;20053;-72
2021/01/05 08:35:30;;;;;;;39.13;23.25;;;;;;;;;;4997442;28;20045;-74
2021/01/05 08:38:04;;;;;;;53.53;28.77;;;;;;;;;;4997468;28;20061;-74
2021/01/05 08:40:34;;;;;;;83.53;37.20;;;;;;;;;;5018410;28;20397;-73
2021/01/05 08:43:07;;;;;;;44.15;23.33;;;;;;;;;;5016012;28;20053;-72
2021/01/05 08:45:35;;;;;;;36.97;21.73;;;;;;;;;;5029701;28;20061;-73
2021/01/05 08:48:04;;;;;;;37.38;22.48;;;;;;;;;;5019248;28;20045;-73
2021/01/05 08:50:33;;;;;;;40.58;21.58;;;;;;;;;;5013477;28;20129;-73
2021/01/05 08:53:05;;;;;;;29.52;17.83;;;;;;;;;;4996210;28;20084;-73
2021/01/05 08:55:38;;;;;;;74.88;32.65;;;;;;;;;;5019553;28;20045;-73
2021/01/05 08:58:07;;;;;;;51.65;24.20;;;;;;;;;;5013299;28;20504;-73
2021/01/05 09:00:35;;;;;;;40.05;20.63;;;;;;;;;;5013385;28;20056;-73
2021/01/05 09:03:04;;;;;;;31.58;18.27;;;;;;;;;;5045316;28;20593;-73
2021/01/05 09:05:45;;;;;;;32.15;19.05;;;;;;;;;;5055262;28;20051;-82
2021/01/05 09:08:14;;;;;;;46.10;21.38;;;;;;;;;;5051440;28;20069;-83
2021/01/05 09:10:42;;;;;;;38.63;20.52;;;;;;;;;;5003335;28;20558;-84
2021/01/05 09:13:10;;;;;;;29.65;17.08;;;;;;;;;;5019284;28;20100;-85
2021/01/05 09:15:38;;;;;;;29.17;16.73;;;;;;;;;;5035432;28;20057;-85
2021/01/05 09:18:06;;;;;;;24.20;15.23;;;;;;;;;;5042162;28;20068;-85
2021/01/05 09:20:34;;;;;;;28.95;14.70;;;;;;;;;;5035644;28;20041;-85
2021/01/05 09:23:02;;;;;;;22.27;15.57;;;;;;;;;;5042471;28;20091;-85
2021/01/05 09:25:29;;;;;;;25.35;15.90;;;;;;;;;;5068008;28;20443;-85
2021/01/05 09:27:57;;;;;;;29.55;16.42;;;;;;;;;;5035506;28;20060;-81
2021/01/05 09:30:25;;;;;;;37.08;19.75;;;;;;;;;;5057783;28;20466;-81
2021/01/05 09:32:53;;;;;;;30.48;15.88;;;;;;;;;;5035244;28;20080;-81
2021/01/05 09:35:21;;;;;;;25.60;14.40;;;;;;;;;;5068069;28;20092;-82
2021/01/05 09:37:50;;;;;;;31.20;15.35;;;;;;;;;;5018974;28;20053;-82
2021/01/05 09:40:19;;;;;;;27.38;15.68;;;;;;;;;;5018286;28;20116;-81
2021/01/05 09:42:47;;;;;;;22.13;14.95;;;;;;;;;;5067763;28;20049;-81
2021/01/05 09:45:17;;;;;;;22.88;15.02;;;;;;;;;;5025674;28;20041;-82
2021/01/05 09:47:44;;;;;;;30.48;16.42;;;;;;;;;;5067375;28;20057;-81
2021/01/05 09:50:13;;;;;;;25.42;15.40;;;;;;;;;;5068032;28;20045;-82
2021/01/05 09:52:40;;;;;;;26.05;16.83;;;;;;;;;;5072398;28;20044;-82
2021/01/05 09:55:09;;;;;;;29.95;16.77;;;;;;;;;;5034264;28;20420;-81
2021/01/05 09:57:38;;;;;;;32.28;19.30;;;;;;;;;;5019319;28;20050;-81
2021/01/05 10:00:09;;;;;;;31.33;18.65;;;;;;;;;;5018207;28;20068;-81
2021/01/05 10:02:37;;;;;;;22.42;13.80;;;;;;;;;;5018595;28;20064;-81
2021/01/05 10:05:06;;;;;;;25.25;16.52;;;;;;;;;;5019090;28;20098;-82
2021/01/05 10:07:34;;;;;;;23.13;13.23;;;;;;;;;;5002209;28;20144;-82
2021/01/05 10:10:01;;;;;;;32.80;21.45;;;;;;;;;;5002860;28;20041;-85
2021/01/05 10:12:30;;;;;;;28.75;17.25;;;;;;;;;;5018502;28;20049;-82
2021/01/05 10:14:57;;;;;;;31.35;21.25;;;;;;;;;;5050816;28;20562;-80
2021/01/05 10:17:25;;;;;;;32.08;21.70;;;;;;;;;;5051896;28;20049;-79
2021/01/05 10:19:54;;;;;;;38.63;21.63;;;;;;;;;;4985846;28;20060;-80
2021/01/05 10:22:22;;;;;;;31.52;18.33;;;;;;;;;;5024805;28;20518;-80
2021/01/05 10:24:50;;;;;;;29.95;20.48;;;;;;;;;;5024888;28;20099;-79
2021/01/05 10:27:18;;;;;;;32.90;22.02;;;;;;;;;;5016884;28;20041;-73
2021/01/05 10:29:45;;;;;;;29.38;16.63;;;;;;;;;;5015661;28;20041;-73
2021/01/05 10:32:13;;;;;;;26.13;18.00;;;;;;;;;;5048389;28;20057;-73
2021/01/05 10:34:41;;;;;;;25.40;17.25;;;;;;;;;;5013737;28;20049;-73
2021/01/05 10:37:10;;;;;;;29.67;18.55;;;;;;;;;;5034128;28;20103;-73
2021/01/05 10:39:37;;;;;;;31.20;18.85;;;;;;;;;;5050967;28;20544;-73
2021/01/05 10:42:06;;;;;;;27.27;18.00;;;;;;;;;;5030974;28;20520;-72
2021/01/05 10:44:34;;;;;;;30.38;18.85;;;;;;;;;;5017033;28;20120;-73
2021/01/05 10:47:05;;;;;;;34.67;20.30;;;;;;;;;;4999872;28;20084;-73
2021/01/05 10:49:33;;;;;;;34.80;20.30;;;;;;;;;;5026897;28;20057;-73
2021/01/05 10:52:03;;;;;;;45.42;23.02;;;;;;;;;;5051346;28;20148;-73
2021/01/05 10:54:30;;;;;;;34.17;20.15;;;;;;;;;;5031507;28;20053;-72
2021/01/05 10:57:03;;;;;;;33.42;19.52;;;;;;;;;;5031549;28;20051;-73
2021/01/05 10:59:32;;;;;;;31.38;18.60;;;;;;;;;;5037203;28;20133;-73
2021/01/05 11:02:02;;;;;;;22.95;13.70;;;;;;;;;;5034178;28;20056;-72
2021/01/05 11:04:31;;;;;;;27.60;16.90;;;;;;;;;;5017468;28;20038;-72
2021/01/05 11:07:06;;;;;;;25.92;16.85;;;;;;;;;;5048357;28;20348;-72
2021/01/05 11:09:34;;;;;;;28.60;16.95;;;;;;;;;;5030420;28;20048;-72
2021/01/05 11:12:10;;;;;;;33.83;20.98;;;;;;;;;;5029974;28;20088;-73
2021/01/05 11:14:40;;;;;;;35.85;21.75;;;;;;;;;;5001265;28;20045;-72
2021/01/05 11:17:08;;;;;;;27.95;18.90;;;;;;;;;;5029876;28;20061;-72
2021/01/05 11:19:37;;;;;;;32.53;21.30;;;;;;;;;;5013108;28;20058;-72
2021/01/05 11:22:09;;;;;;;37.28;21.55;;;;;;;;;;5013513;28;20058;-72
2021/01/05 11:24:38;;;;;;;;;;;;;;;;;;5013587;28;20065;-72
2021/01/05 11:27:07;;;;;;;35.30;21.30;;;;;;;;;;5014068;28;19931;-73
2021/01/05 11:29:35;;;;;;;39.15;23.10;;;;;;;;;;5050736;28;20096;-72
2021/01/05 11:32:13;;;;;;;43.10;24.88;;;;;;;;;;5030976;28;20053;-74
2021/01/05 11:34:42;;;;;;;42.90;24.20;;;;;;;;;;5014373;28;20057;-74
2021/01/05 11:37:14;;;;;;;61.42;32.28;;;;;;;;;;5037032;28;20440;-74
2021/01/05 11:39:46;;;;;;;61.40;35.20;;;;;;;;;;5020874;28;20041;-74
2021/01/05 11:42:17;;;;;;;68.03;42.53;;;;;;;;;;5021084;28;20064;-74
2021/01/05 11:44:46;;;;;;;77.65;44.88;;;;;;;;;;5013771;28;20858;-74
2021/01/05 11:47:17;;;;;;;64.90;39.65;;;;;;;;;;5046592;28;20580;-75
2021/01/05 11:49:46;;;;;;;67.20;40.60;;;;;;;;;;5014124;28;20056;-74
2021/01/05 11:52:14;;;;;;;56.30;36.90;;;;;;;;;;5013852;28;20076;-75
2021/01/05 11:54:42;;;;;;;47.97;31.67;;;;;;;;;;5048895;28;20484;-74
2021/01/05 11:57:10;;;;;;;45.00;27.77;;;;;;;;;;5046216;28;20089;-74
2021/01/05 11:59:38;;;;;;;46.60;32.55;;;;;;;;;;5013691;28;20065;-73
2021/01/05 12:02:06;;;;;;;48.25;31.58;;;;;;;;;;5036375;28;20049;-73
2021/01/05 12:04:34;;;;;;;50.17;31.58;;;;;;;;;;5029767;28;20092;-74
2021/01/05 12:07:02;;;;;;;47.83;31.83;;;;;;;;;;5046387;28;20463;-72
2021/01/05 12:09:30;;;;;;;63.30;36.85;;;;;;;;;;5013233;28;20060;-73
2021/01/05 12:12:06;;;;;;;54.63;32.50;;;;;;;;;;5046015;28;20592;-74
2021/01/05 12:14:35;;;;;;;45.75;32.88;;;;;;;;;;5029697;28;20045;-72
2021/01/05 12:17:04;;;;;;;40.20;27.48;;;;;;;;;;5029476;28;20061;-73
2021/01/05 12:19:40;;;;;;;44.42;29.27;;;;;;;;;;5016076;28;20045;-73
2021/01/05 12:22:09;;;;;;;36.38;25.10;;;;;;;;;;5046502;28;20129;-73
2021/01/05 12:24:38;;;;;;;35.30;23.33;;;;;;;;;;5029393;28;20053;-74
2021/01/05 12:27:09;;;;;;;40.08;26.88;;;;;;;;;;5013628;28;20058;-74
2021/01/05 12:29:39;;;;;;;55.40;34.38;;;;;;;;;;5033855;28;20480;-74
2021/01/05 12:32:13;;;;;;;61.95;41.50;;;;;;;;;;5033361;28;20060;-82
2021/01/05 12:34:47;;;;;;;45.08;30.27;;;;;;;;;;5034274;28;20094;-83
2021/01/05 12:37:20;;;;;;;43.20;31.25;;;;;;;;;;5039895;28;20824;-86
2021/01/05 12:39:49;;;;;;;43.17;32.33;;;;;;;;;;5023014;28;20041;-86
2021/01/05 12:42:24;;;;;;;47.08;32.08;;;;;;;;;;5016978;28;20108;-80
2021/01/05 12:44:55;;;;;;;47.42;32.47;;;;;;;;;;5023616;28;20045;-79
2021/01/05 12:47:26;;;;;;;52.85;34.17;;;;;;;;;;5033223;28;20048;-81
2021/01/05 12:49:56;;;;;;;42.63;31.88;;;;;;;;;;5017193;28;20546;-84
2021/01/05 12:52:24;;;;;;;54.28;36.28;;;;;;;;;;5021631;28;20045;-82
2021/01/05 12:54:52;;;;;;;44.97;34.67;;;;;;;;;;5049862;28;20054;-82
2021/01/05 12:57:20;;;;;;;52.75;38.67;;;;;;;;;;5023417;28;20045;-86
2021/01/05 12:59:48;;;;;;;56.88;39.20;;;;;;;;;;5048854;28;20060;-83
2021/01/05 13:02:22;;;;;;;52.58;35.10;;;;;;;;;;5049880;28;20057;-82
2021/01/05 13:04:50;;;;;;;49.63;33.45;;;;;;;;;;5037931;28;20053;-81
2021/01/05 13:07:22;;;;;;;49.58;35.47;;;;;;;;;;5000445;28;20049;-81
2021/01/05 13:09:56;;;;;;;50.80;35.22;;;;;;;;;;5048699;28;20045;-81
2021/01/05 13:12:25;;;;;;;47.80;33.50;;;;;;;;;;5032953;28;20496;-80
2021/01/05 13:14:53;;;;;;;49.70;36.20;;;;;;;;;;5014885;28;20091;-81
2021/01/05 13:17:25;;;;;;;44.78;33.05;;;;;;;;;;5048109;28;20053;-81
2021/01/05 13:19:54;;;;;;;47.05;33.88;;;;;;;;;;5028742;28;20037;-81
2021/01/05 13:22:22;;;;;;;61.72;40.92;;;;;;;;;;5010188;28;20061;-81
2021/01/05 13:24:49;;;;;;;65.57;47.00;;;;;;;;;;5006301;28;20052;-81
2021/01/05 13:27:17;;;;;;;68.38;47.28;;;;;;;;;;5050935;28;20136;-73
2021/01/05 13:29:44;;;;;;;89.00;51.83;;;;;;;;;;5036696;28;20068;-73
2021/01/05 13:32:17;;;;;;;92.88;51.28;;;;;;;;;;5033352;28;20399;-72
2021/01/05 13:34:49;;;;;;;103.35;56.92;;;;;;;;;;5039550;28;20051;-73
2021/01/05 13:37:19;;;;;;;96.45;52.17;;;;;;;;;;5033683;28;20048;-73
2021/01/05 13:39:47;;;;;;;57.20;37.70;;;;;;;;;;5064928;28;20502;-73
2021/01/05 13:42:19;;;;;;;75.57;44.22;;;;;;;;;;5047889;28;20041;-72
2021/01/05 13:44:49;;;;;;;67.00;44.17;;;;;;;;;;4999780;28;20041;-72
2021/01/05 13:47:20;;;;;;;58.20;37.10;;;;;;;;;;5005981;28;20124;-72
2021/01/05 13:49:49;;;;;;;77.38;50.40;;;;;;;;;;5017001;28;20045;-72
2021/01/05 13:52:22;;;;;;;67.55;40.05;;;;;;;;;;5014822;28;20541;-72
2021/01/05 13:54:51;;;;;;;61.22;38.85;;;;;;;;;;5038647;28;20051;-72
2021/01/05 13:57:23;;;;;;;60.47;36.75;;;;;;;;;;5047646;28;20166;-73
2021/01/05 13:59:52;;;;;;;56.97;36.95;;;;;;;;;;5064636;28;20131;-73
2021/01/05 14:02:23;;;;;;;57.63;35.03;;;;;;;;;;5031995;28;20056;-73
2021/01/05 14:04:51;;;;;;;53.55;36.42;;;;;;;;;;5017238;28;20095;-72
2021/01/05 14:07:20;;;;;;;50.25;35.63;;;;;;;;;;5035589;28;20071;-73
2021/01/05 14:09:49;;;;;;;63.40;39.75;;;;;;;;;;5002241;28;20051;-73
2021/01/05 14:12:20;;;;;;;82.18;45.78;;;;;;;;;;5015651;28;20144;-73
2021/01/05 14:14:47;;;;;;;81.72;47.25;;;;;;;;;;5015717;28;20136;-73
2021/01/05 14:17:16;;;;;;;66.97;40.78;;;;;;;;;;5015211;28;20061;-73
2021/01/05 14:19:45;;;;;;;67.60;44.17;;;;;;;;;;5014421;28;20496;-73
2021/01/05 14:22:13;;;;;;;62.70;41.17;;;;;;;;;;5037423;28;20144;-73
2021/01/05 14:24:41;;;;;;;64.20;41.70;;;;;;;;;;5034054;28;20088;-73
2021/01/05 14:27:10;;;;;;;61.50;41.67;;;;;;;;;;5033061;28;20041;-73
2021/01/05 14:29:38;;;;;;;62.22;40.53;;;;;;;;;;5025814;28;20120;-73
2021/01/05 14:32:09;;;;;;;52.75;37.42;;;;;;;;;;5019687;28;20073;-73
2021/01/05 14:34:39;;;;;;;66.15;42.30;;;;;;;;;;5035757;28;20115;-73
2021/01/05 14:37:16;;;;;;;66.78;45.17;;;;;;;;;;5002875;28;20040;-72
2021/01/05 14:39:46;;;;;;;59.30;42.22;;;;;;;;;;5036573;28;20045;-72
2021/01/05 14:42:14;;;;;;;58.72;37.90;;;;;;;;;;5035321;28;20521;-72
2021/01/05 14:44:44;;;;;;;66.47;43.08;;;;;;;;;;5051837;28;20045;-74
2021/01/05 14:47:16;;;;;;;62.80;39.83;;;;;;;;;;5035247;28;20061;-74
2021/01/05 14:49:47;;;;;;;51.88;39.05;;;;;;;;;;5025887;28;20483;-72
2021/01/05 14:52:20;;;;;;;47.42;34.53;;;;;;;;;;5025369;28;20041;-74
2021/01/05 14:54:52;;;;;;;59.45;41.35;;;;;;;;;;5003293;28;20907;-73
2021/01/05 14:57:21;;;;;;;;;;;;;;;;;;5036835;28;20084;-74
2021/01/05 14:59:48;;;;;;;55.88;35.63;;;;;;;;;;5052013;28;20383;-73
2021/01/05 15:02:17;;;;;;;51.22;35.88;;;;;;;;;;5009455;28;20138;-73